Time;durP1;ratioP1;P1;durP2;ratioP2;P2;SDS_P1;SDS_P2;PMS_P1;PMS_P2;Temp;Humidity;BMP_temperature;BMP_pressure;BME280_temperature;BME280_humidity;BME280_pressure;Samples;Min_cycle;Max_cycle;Signal;HPM_P1;HPM_P2
2022/01/06 00:01:00;;;;;;;1.53;1.43;;;5.70;99.90;;;5.97;75.80;100422.09;4986689;28;20999;-65
2022/01/06 00:03:28;;;;;;;4.80;1.50;;;5.80;99.90;;;5.94;76.49;100425.69;4980473;28;20619;-65
2022/01/06 00:05:56;;;;;;;1.30;1.30;;;5.70;99.90;;;5.93;75.97;100429.22;4986482;28;21203;-65
2022/01/06 00:08:23;;;;;;;4.38;1.30;;;5.70;99.90;;;5.91;75.92;100425.88;4988909;28;21014;-65
2022/01/06 00:10:52;;;;;;;1.00;1.00;;;5.80;99.90;;;5.92;75.72;100427.53;4989402;28;20206;-64
2022/01/06 00:13:26;;;;;;;1.70;0.83;;;5.70;99.90;;;5.91;76.12;100422.44;4989341;28;20203;-65
2022/01/06 00:18:45;;;;;;;2.00;0.80;;;5.70;99.90;;;5.94;76.64;100433.47;4985932;28;20653;-64
2022/01/06 00:23:58;;;;;;;2.78;1.35;;;5.70;99.90;;;5.90;76.87;100442.31;4989096;28;20603;-64
2022/01/06 00:26:24;;;;;;;0.70;0.57;;;5.70;99.90;;;5.89;76.58;100447.59;4988652;28;20207;-65
2022/01/06 00:28:51;;;;;;;2.33;1.30;;;5.70;99.90;;;5.92;77.07;100442.25;4990491;28;20605;-64
2022/01/06 00:31:18;;;;;;;1.73;1.30;;;5.70;99.90;;;5.95;76.63;100436.91;4988767;28;20642;-64
2022/01/06 00:33:45;;;;;;;2.33;1.30;;;5.80;99.90;;;5.98;76.71;100431.56;4990605;28;20648;-64
2022/01/06 00:36:12;;;;;;;2.00;1.30;;;5.80;99.90;;;5.99;76.42;100431.47;4988650;28;21299;-64
2022/01/06 00:38:39;;;;;;;1.48;1.13;;;5.80;99.90;;;5.97;76.34;100441.06;4988566;28;20618;-64
2022/01/06 00:41:06;;;;;;;3.63;1.70;;;5.70;99.90;;;5.96;77.13;100434.22;4987081;28;20597;-66
2022/01/06 00:43:33;;;;;;;1.10;1.10;;;5.70;99.90;;;5.88;77.05;100436.41;4980672;28;21299;-64
2022/01/06 00:46:00;;;;;;;1.10;1.10;;;5.70;99.90;;;5.79;77.75;100433.47;4982926;28;20626;-64
2022/01/06 00:48:27;;;;;;;1.40;1.30;;;5.60;99.90;;;5.81;77.40;100431.63;4979617;28;20655;-65
2022/01/06 00:50:54;;;;;;;1.70;1.35;;;5.60;99.90;;;5.79;77.50;100436.88;4988783;28;20660;-64
2022/01/06 00:53:21;;;;;;;1.30;1.17;;;5.60;99.90;;;5.81;77.26;100442.81;4972754;28;20763;-65
2022/01/06 00:55:48;;;;;;;1.23;1.10;;;5.60;99.90;;;5.85;77.14;100444.34;4987703;28;20689;-64
2022/01/06 00:58:15;;;;;;;1.33;0.90;;;5.60;99.90;;;5.82;77.95;100439.31;4993531;28;20682;-64
2022/01/06 01:00:43;;;;;;;1.30;1.20;;;5.60;99.90;;;5.80;78.79;100445.47;4994275;28;20203;-64
2022/01/06 01:03:21;;;;;;;0.80;0.80;;;5.60;99.90;;;5.83;78.61;100443.56;4994564;28;20649;-64
2022/01/06 01:05:51;;;;;;;1.73;1.13;;;5.60;99.90;;;5.87;78.80;100450.28;4991476;23;20197;-67
2022/01/06 01:08:19;;;;;;;1.42;1.00;;;5.70;99.90;;;5.89;79.09;100451.03;4983197;28;20302;-67
2022/01/06 01:10:47;;;;;;;5.00;1.57;;;5.70;99.90;;;5.90;78.95;100452.69;4997269;28;20214;-68
2022/01/06 01:13:15;;;;;;;1.33;1.10;;;5.70;99.90;;;5.89;79.14;100448.44;4994487;28;20652;-67
2022/01/06 01:15:52;;;;;;;1.67;0.97;;;5.70;99.90;;;5.91;78.92;100450.94;4991175;28;20636;-67
2022/01/06 01:18:20;;;;;;;0.80;0.80;;;5.70;99.90;;;5.88;78.60;100458.84;4973103;28;20623;-67
2022/01/06 01:20:49;;;;;;;2.53;1.20;;;5.70;99.90;;;5.91;79.58;100459.56;4972210;28;20730;-67
2022/01/06 01:23:18;;;;;;;2.37;0.60;;;5.70;99.90;;;5.87;79.31;100464.97;4973522;28;20618;-68
2022/01/06 01:25:45;;;;;;;0.60;0.60;;;5.70;99.90;;;5.90;78.51;100468.22;4956326;28;21220;-66
2022/01/06 01:28:14;;;;;;;2.23;1.63;;;5.70;99.90;;;5.88;79.21;100477.81;4972230;28;20635;-67
2022/01/06 01:33:43;;;;;;;1.50;1.10;;;5.80;99.90;;;5.94;78.88;100481.84;4949555;28;20200;-68
2022/01/06 01:36:10;;;;;;;4.50;1.67;;;5.80;99.90;;;5.94;78.87;100469.72;4983169;28;21234;-68
2022/01/06 01:38:39;;;;;;;5.87;1.40;;;5.80;99.90;;;5.91;79.50;100475.09;4972552;28;20610;-68
2022/01/06 01:41:07;;;;;;;1.70;1.50;;;5.70;99.90;;;5.86;79.97;100484.84;4964048;28;21191;-68
2022/01/06 01:43:34;;;;;;;3.97;1.45;;;5.70;99.90;;;5.87;79.44;100478.78;4973682;28;20210;-67
2022/01/06 01:46:09;;;;;;;0.80;0.80;;;5.60;99.90;;;5.89;78.92;100482.09;4974198;28;20228;-66
2022/01/06 01:48:40;;;;;;;2.42;1.70;;;5.70;99.90;;;5.86;80.12;100479.66;4972139;28;20650;-68
2022/01/06 01:51:10;;;;;;;1.43;1.07;;;5.70;99.90;;;5.84;79.83;100496.19;4973831;28;20196;-66
2022/01/06 01:53:37;;;;;;;0.90;0.90;;;5.60;99.90;;;5.75;79.72;100496.69;4972193;28;20619;-66
2022/01/06 01:56:09;;;;;;;2.10;1.13;;;5.50;99.90;;;5.70;79.77;100507.28;4981362;28;20762;-66
2022/01/06 01:58:38;;;;;;;0.83;0.43;;;5.50;99.90;;;5.71;80.42;100505.53;4952249;29;21175;-68
2022/01/06 02:01:05;;;;;;;2.73;1.37;;;5.50;99.90;;;5.68;80.22;100510.88;4964569;28;20638;-68
2022/01/06 02:03:32;;;;;;;2.55;1.20;;;5.40;99.90;;;5.69;80.62;100512.53;4973061;28;20615;-68
2022/01/06 02:05:59;;;;;;;4.22;1.55;;;5.50;99.90;;;5.66;80.76;100523.91;4973251;28;20231;-66
2022/01/06 02:08:26;;;;;;;4.80;1.17;;;5.40;99.90;;;5.67;80.88;100525.56;4976627;28;20204;-66
2022/01/06 02:10:53;;;;;;;1.10;1.10;;;5.50;99.90;;;5.73;80.83;100527.81;4968782;28;20568;-66
2022/01/06 02:13:24;;;;;;;1.00;0.97;;;5.50;99.90;;;5.74;81.42;100526.91;4974212;28;20712;-66
2022/01/06 02:15:50;;;;;;;8.38;0.95;;;5.60;99.90;;;5.74;80.67;100532.09;4972398;28;20647;-66
2022/01/06 02:18:17;;;;;;;0.30;0.30;;;5.60;99.90;;;5.75;81.55;100541.50;4972270;28;20204;-66
2022/01/06 02:20:44;;;;;;;1.37;1.20;;;5.60;99.90;;;5.80;81.49;100547.28;4974081;28;20615;-66
2022/01/06 02:23:11;;;;;;;1.73;1.03;;;5.60;99.90;;;5.82;81.97;100545.47;4979637;28;20631;-66
2022/01/06 02:25:38;;;;;;;1.67;1.20;;;5.60;99.90;;;5.80;81.47;100555.06;4985210;28;21208;-68
2022/01/06 02:28:05;;;;;;;1.37;1.17;;;5.60;99.90;;;5.75;81.58;100551.88;4991684;28;20211;-66
2022/01/06 02:30:33;;;;;;;3.50;1.60;;;5.50;99.90;;;5.74;81.81;100542.44;4990765;28;20617;-66
2022/01/06 02:33:02;;;;;;;1.45;1.35;;;5.50;99.90;;;5.68;82.20;100550.53;4971191;28;20711;-66
2022/01/06 02:35:30;;;;;;;3.58;1.23;;;5.50;99.90;;;5.62;81.81;100548.28;4971779;28;20212;-66
2022/01/06 02:37:58;;;;;;;1.42;1.00;;;5.40;99.90;;;5.59;82.15;100553.63;4972109;28;20318;-67
2022/01/06 02:40:26;;;;;;;1.27;1.20;;;5.30;99.90;;;5.59;82.28;100560.53;4973579;28;20211;-66
2022/01/06 02:42:56;;;;;;;2.40;1.30;;;5.40;99.90;;;5.56;82.58;100558.94;4970619;28;20294;-66
2022/01/06 02:45:28;;;;;;;0.90;0.90;;;5.30;99.90;;;5.56;82.94;100548.59;4972895;28;20643;-66
2022/01/06 02:47:56;;;;;;;1.27;1.17;;;5.30;99.90;;;5.58;82.58;100557.09;4955349;28;20569;-66
2022/01/06 02:50:25;;;;;;;1.10;1.00;;;5.40;99.90;;;5.60;82.51;100549.28;4971726;28;20697;-68
2022/01/06 02:52:53;;;;;;;2.35;1.40;;;5.40;99.90;;;5.62;82.78;100547.44;4973535;28;20204;-67
2022/01/06 02:55:20;;;;;;;0.70;0.70;;;5.40;99.90;;;5.61;82.59;100551.78;4970628;28;20212;-68
2022/01/06 02:57:47;;;;;;;1.10;1.10;;;5.40;99.90;;;5.65;81.99;100553.28;4971195;28;20871;-68
2022/01/06 03:00:16;;;;;;;1.53;1.10;;;5.50;99.90;;;5.65;82.24;100549.84;4970814;28;20208;-68
2022/01/06 03:02:46;;;;;;;0.83;0.80;;;5.40;99.90;;;5.67;82.01;100554.03;4951303;28;20685;-68
2022/01/06 03:05:16;;;;;;;4.60;1.00;;;5.50;99.90;;;5.65;82.48;100561.06;4970016;28;20644;-68
2022/01/06 03:07:44;;;;;;;1.20;1.10;;;5.50;99.90;;;5.65;82.12;100562.78;4970571;28;20658;-68
2022/01/06 03:10:15;;;;;;;1.70;1.23;;;5.50;99.90;;;5.67;82.01;100566.97;4968928;28;20311;-67
2022/01/06 03:12:43;;;;;;;1.17;1.00;;;5.50;99.90;;;5.69;81.43;100565.16;4949868;28;20849;-67
2022/01/06 03:15:13;;;;;;;0.90;0.90;;;5.50;99.90;;;5.67;81.61;100561.81;4979514;28;20715;-68
2022/01/06 03:17:44;;;;;;;0.80;0.80;;;5.50;99.90;;;5.66;81.93;100574.84;4968938;28;20681;-67
2022/01/06 03:20:13;;;;;;;0.70;0.70;;;5.40;99.90;;;5.69;81.33;100580.69;4978909;28;20610;-67
2022/01/06 03:22:41;;;;;;;2.83;1.55;;;5.50;99.90;;;5.69;81.88;100585.00;4985914;28;20568;-65
2022/01/06 03:25:10;;;;;;;1.53;1.00;;;5.50;99.90;;;5.64;81.48;100581.84;4971679;28;20556;-68
2022/01/06 03:27:38;;;;;;;1.45;0.90;;;5.40;99.90;;;5.64;81.45;100580.09;4972039;28;21229;-68
2022/01/06 03:30:10;;;;;;;1.00;0.87;;;5.40;99.90;;;5.67;81.57;100577.34;4970748;28;20295;-65
2022/01/06 03:32:37;;;;;;;0.95;0.95;;;5.50;99.90;;;5.69;81.19;100585.00;4970785;28;20625;-66
2022/01/06 03:35:06;;;;;;;1.10;1.10;;;5.50;99.90;;;5.68;81.26;100585.94;4971535;28;20200;-68
2022/01/06 03:37:33;;;;;;;0.88;0.88;;;5.50;99.90;;;5.66;81.54;100588.63;4971090;28;20677;-65
2022/01/06 03:40:04;;;;;;;1.30;1.20;;;5.50;99.90;;;5.64;81.46;100593.03;4972818;28;20220;-65
2022/01/06 03:42:33;;;;;;;0.82;0.82;;;5.40;99.90;;;5.63;81.16;100596.53;4966023;28;20651;-68
2022/01/06 03:45:01;;;;;;;0.90;0.90;;;5.40;99.90;;;5.63;81.52;100600.88;4968329;28;20192;-68
2022/01/06 03:47:28;;;;;;;0.77;0.77;;;5.40;99.90;;;5.60;81.58;100599.25;4970310;28;20649;-68
2022/01/06 03:49:55;;;;;;;0.93;0.93;;;5.40;99.90;;;5.57;81.58;100598.59;4970876;28;20737;-68
2022/01/06 03:52:23;;;;;;;4.50;1.10;;;5.40;99.90;;;5.56;81.17;100595.16;4972224;28;20611;-65
2022/01/06 03:54:51;;;;;;;0.80;0.80;;;5.40;99.90;;;5.55;81.31;100597.84;4955039;28;20219;-66
2022/01/06 03:57:18;;;;;;;3.45;1.23;;;5.30;99.90;;;5.46;81.49;100602.59;4969243;28;20707;-67
2022/01/06 03:59:45;;;;;;;0.90;0.70;;;5.20;99.90;;;5.44;81.52;100608.75;4971652;28;20211;-68
2022/01/06 04:02:12;;;;;;;0.70;0.70;;;5.20;99.90;;;5.40;81.74;100612.41;4944722;28;20688;-67
2022/01/06 04:04:39;;;;;;;3.30;0.90;;;5.10;99.90;;;5.37;81.76;100610.81;4951745;28;20291;-67
2022/01/06 04:07:06;;;;;;;1.77;1.00;;;5.20;99.90;;;5.37;81.56;100615.97;4970299;28;20701;-68
2022/01/06 04:09:33;;;;;;;3.00;0.90;;;5.10;99.90;;;5.38;81.54;100619.41;4971747;28;20627;-68
2022/01/06 04:12:00;;;;;;;1.17;0.67;;;5.20;99.90;;;5.35;81.91;100619.56;4972168;28;20214;-67
2022/01/06 04:14:27;;;;;;;1.37;1.27;;;5.10;99.90;;;5.32;81.54;100617.97;4969324;28;20643;-68
2022/01/06 04:16:59;;;;;;;0.87;0.87;;;5.10;99.90;;;5.27;81.76;100624.28;4970292;28;21196;-68
2022/01/06 04:19:27;;;;;;;0.75;0.75;;;5.00;99.90;;;5.23;81.62;100622.78;4970150;28;21261;-67
2022/01/06 04:21:54;;;;;;;2.47;0.70;;;5.00;99.90;;;5.15;82.10;100623.16;4970743;28;20659;-68
2022/01/06 04:24:21;;;;;;;0.63;0.63;;;4.90;99.90;;;5.14;82.51;100634.41;4971132;28;20219;-67
2022/01/06 04:26:48;;;;;;;2.28;0.80;;;4.90;99.90;;;5.07;82.44;100638.19;4981080;28;20654;-67
2022/01/06 04:29:18;;;;;;;1.25;1.15;;;4.80;99.90;;;5.06;82.76;100641.72;4990645;28;20207;-68
2022/01/06 04:31:45;;;;;;;0.80;0.80;;;4.80;99.90;;;5.06;82.32;100649.47;4974799;28;20547;-67
2022/01/06 04:34:12;;;;;;;0.80;0.80;;;4.80;99.90;;;5.05;82.75;100646.94;4981797;28;20634;-67
2022/01/06 04:36:41;;;;;;;0.90;0.90;;;4.80;99.90;;;5.00;82.55;100644.59;4993349;28;20223;-66
2022/01/06 04:39:08;;;;;;;9.15;1.30;;;4.80;99.90;;;4.96;83.32;100650.00;4975756;28;20555;-67
2022/01/06 04:41:35;;;;;;;1.00;1.00;;;4.70;99.90;;;4.95;83.35;100649.16;4974491;28;20194;-68
2022/01/06 04:44:02;;;;;;;0.77;0.77;;;4.70;99.90;;;4.94;83.15;100654.41;4972064;28;20215;-68
2022/01/06 04:46:29;;;;;;;2.08;1.02;;;4.70;99.90;;;4.87;83.21;100661.63;4953714;28;20601;-67
2022/01/06 04:48:56;;;;;;;0.80;0.80;;;4.70;99.90;;;4.88;83.08;100663.28;4978905;28;20796;-67
2022/01/06 04:51:23;;;;;;;0.77;0.75;;;4.70;99.90;;;4.83;83.64;100673.03;4993513;28;20275;-68
2022/01/06 04:53:50;;;;;;;0.77;0.77;;;4.60;99.90;;;4.80;83.94;100674.91;4980947;28;20216;-66
2022/01/06 04:56:16;;;;;;;1.52;1.08;;;4.60;99.90;;;4.80;83.90;100674.91;4982718;28;20700;-67
2022/01/06 04:58:43;;;;;;;8.23;1.25;;;4.60;99.90;;;4.78;84.11;100687.06;4992450;28;20227;-67
2022/01/06 05:01:10;;;;;;;3.55;1.50;;;4.60;99.90;;;4.78;84.13;100685.31;4973515;28;20204;-68
2022/01/06 05:03:37;;;;;;;2.00;1.33;;;4.60;99.90;;;4.78;83.79;100687.06;4973673;28;20737;-67
2022/01/06 05:06:04;;;;;;;3.25;1.50;;;4.60;99.90;;;4.66;84.57;100691.88;4978542;28;20232;-67
2022/01/06 05:08:31;;;;;;;3.33;1.50;;;4.40;99.90;;;4.63;84.73;100683.44;4973724;28;20208;-66
2022/01/06 05:10:58;;;;;;;0.90;0.88;;;4.40;99.90;;;4.56;84.91;100689.81;4970884;28;20207;-67
2022/01/06 05:13:25;;;;;;;3.20;1.05;;;4.30;99.90;;;4.53;85.08;100693.41;4974414;28;20214;-68
2022/01/06 05:15:52;;;;;;;2.58;1.60;;;4.30;99.90;;;4.51;85.24;100695.22;4975078;28;20274;-67
2022/01/06 05:18:22;;;;;;;7.13;1.30;;;4.30;99.90;;;4.48;85.19;100695.34;4955715;28;20306;-68
2022/01/06 05:20:49;;;;;;;4.45;1.25;;;4.30;99.90;;;4.42;85.87;100700.78;4956488;28;20188;-67
2022/01/06 05:23:17;;;;;;;1.50;1.27;;;4.20;99.90;;;4.44;85.65;100700.72;4971908;28;20208;-67
2022/01/06 05:25:44;;;;;;;3.42;0.90;;;4.20;99.90;;;4.42;86.37;100705.13;4974446;28;20870;-67
2022/01/06 05:28:10;;;;;;;1.45;1.17;;;4.20;99.90;;;4.40;85.92;100706.94;4973414;28;20591;-67
2022/01/06 05:30:37;;;;;;;1.92;1.38;;;4.20;99.90;;;4.40;86.50;100712.94;4975049;28;20298;-68
2022/01/06 05:33:07;;;;;;;1.35;0.90;;;4.20;99.90;;;4.44;86.08;100714.47;4980212;28;20306;-68
2022/01/06 05:35:34;;;;;;;6.43;1.60;;;4.30;99.90;;;4.48;86.12;100710.84;4992285;28;20200;-68
2022/01/06 05:38:00;;;;;;;3.45;2.05;;;4.30;99.90;;;4.51;85.67;100717.63;4976932;28;20306;-67
2022/01/06 05:40:27;;;;;;;12.85;7.03;;;4.30;99.90;;;4.53;85.71;100711.47;4973756;28;20663;-67
2022/01/06 05:42:56;;;;;;;2.83;2.05;;;4.40;99.90;;;4.53;85.86;100715.81;4970101;28;20204;-68
2022/01/06 05:45:24;;;;;;;4.28;1.05;;;4.30;99.90;;;4.57;86.12;100715.59;4978679;28;20586;-67
2022/01/06 05:47:51;;;;;;;3.08;1.70;;;4.40;99.90;;;4.58;85.90;100726.75;4952769;28;20197;-66
2022/01/06 05:50:19;;;;;;;2.10;1.30;;;4.40;99.90;;;4.59;85.71;100729.28;4972819;28;20204;-67
2022/01/06 05:52:46;;;;;;;1.63;1.20;;;4.40;99.90;;;4.63;85.76;100729.97;4973288;28;20211;-68
2022/01/06 05:55:13;;;;;;;4.63;1.52;;;4.50;99.90;;;4.63;85.52;100725.66;4972112;28;20283;-67
2022/01/06 05:57:40;;;;;;;2.30;1.17;;;4.50;99.90;;;4.62;85.44;100728.31;4968008;28;20243;-67
2022/01/06 06:00:09;;;;;;;2.10;2.00;;;4.40;99.90;;;4.60;85.69;100736.09;4962777;28;20203;-67
2022/01/06 06:02:36;;;;;;;1.98;1.38;;;4.40;99.90;;;4.61;85.78;100747.28;4970074;28;20204;-67
2022/01/06 06:05:04;;;;;;;1.30;1.30;;;4.40;99.90;;;4.61;85.63;100748.13;4972242;28;20196;-67
2022/01/06 06:07:31;;;;;;;1.65;1.55;;;4.40;99.90;;;4.63;85.29;100748.91;4970629;28;20799;-67
2022/01/06 06:09:58;;;;;;;1.25;1.20;;;4.50;99.90;;;4.65;85.80;100754.00;4961225;28;20195;-68
2022/01/06 06:12:25;;;;;;;2.00;1.67;;;4.50;99.90;;;4.65;85.23;100751.41;4980635;28;20243;-68
2022/01/06 06:14:52;;;;;;;1.15;1.15;;;4.50;99.90;;;4.70;84.77;100768.41;4973966;28;20636;-68
2022/01/06 06:17:19;;;;;;;0.68;0.68;;;4.60;99.90;;;4.72;84.52;100761.41;4971374;28;20228;-67
2022/01/06 06:19:46;;;;;;;1.20;1.10;;;4.60;99.90;;;4.76;84.55;100766.44;4971311;28;20402;-68
2022/01/06 06:22:13;;;;;;;1.42;1.33;;;4.60;99.90;;;4.77;84.52;100770.69;4971346;28;20299;-68
2022/01/06 06:24:39;;;;;;;1.30;1.30;;;4.60;99.90;;;4.79;84.31;100774.06;4965058;28;20204;-68
2022/01/06 06:27:07;;;;;;;1.58;1.50;;;4.60;99.90;;;4.80;84.84;100775.72;4967621;28;20310;-68
2022/01/06 06:29:34;;;;;;;1.75;1.40;;;4.60;99.90;;;4.83;84.83;100770.41;4976541;28;20211;-67
2022/01/06 06:32:00;;;;;;;1.65;1.40;;;4.70;99.90;;;4.85;84.64;100774.59;4972819;28;20200;-68
2022/01/06 06:34:27;;;;;;;4.85;1.30;;;4.70;99.90;;;4.91;84.25;100776.91;4970272;28;20200;-68
2022/01/06 06:36:54;;;;;;;0.90;0.90;;;4.80;99.90;;;4.87;83.79;100775.38;4972896;28;20583;-68
2022/01/06 06:39:21;;;;;;;1.20;1.20;;;4.70;99.90;;;4.84;83.70;100779.84;4971075;28;20228;-68
2022/01/06 06:41:48;;;;;;;0.80;0.80;;;4.70;99.90;;;4.76;84.22;100771.59;4970723;28;20223;-68
2022/01/06 06:44:15;;;;;;;1.10;1.10;;;4.50;99.90;;;4.69;84.34;100769.28;4968542;28;20570;-68
2022/01/06 06:46:42;;;;;;;1.50;1.40;;;4.50;99.90;;;4.67;84.34;100778.88;4977177;28;20215;-68
2022/01/06 06:49:09;;;;;;;1.30;1.30;;;4.50;99.90;;;4.61;83.73;100779.16;4991371;28;20274;-68
2022/01/06 06:51:37;;;;;;;0.73;0.73;;;4.40;99.90;;;4.59;84.00;100770.63;4982641;28;20640;-68
2022/01/06 06:54:08;;;;;;;5.97;1.00;;;4.40;99.90;;;4.52;84.25;100787.31;4976625;28;20554;-67
2022/01/06 06:56:35;;;;;;;0.90;0.90;;;4.30;99.90;;;4.46;84.38;100792.75;4961583;28;20244;-65
2022/01/06 06:59:02;;;;;;;1.00;1.00;;;4.20;99.90;;;4.44;84.78;100797.16;4952367;29;20236;-65
2022/01/06 07:01:29;;;;;;;4.50;1.08;;;4.20;99.90;;;4.43;84.79;100797.22;4964782;28;20207;-66
2022/01/06 07:03:56;;;;;;;1.95;1.15;;;4.20;99.90;;;4.38;84.57;100801.75;4970815;28;20185;-66
2022/01/06 07:06:23;;;;;;;4.45;1.23;;;4.20;99.90;;;4.34;84.92;100795.03;4976633;28;20227;-64
2022/01/06 07:08:50;;;;;;;0.98;0.98;;;4.10;99.90;;;4.28;84.95;100792.72;4984879;28;20210;-66
2022/01/06 07:11:17;;;;;;;1.15;1.15;;;4.00;99.90;;;4.24;85.30;100804.91;4976635;28;20215;-66
2022/01/06 07:13:44;;;;;;;1.83;1.00;;;4.00;99.90;;;4.23;85.79;100805.84;4971687;28;20211;-68
2022/01/06 07:16:11;;;;;;;0.90;0.90;;;4.00;99.90;;;4.18;85.92;100815.50;4969052;28;20238;-67
2022/01/06 07:18:38;;;;;;;0.80;0.80;;;4.00;99.90;;;4.19;85.73;100812.03;4965129;28;20228;-68
2022/01/06 07:21:05;;;;;;;3.35;1.30;;;4.00;99.90;;;4.21;85.60;100823.16;4979107;28;20196;-68
2022/01/06 07:23:32;;;;;;;1.10;1.10;;;4.00;99.90;;;4.16;85.96;100816.47;4971983;28;20200;-68
2022/01/06 07:25:59;;;;;;;1.20;1.10;;;4.00;99.90;;;4.20;85.27;100821.44;4970241;28;20246;-68
2022/01/06 07:28:26;;;;;;;0.63;0.63;;;4.00;99.90;;;4.21;85.60;100827.47;4967508;28;20208;-68
2022/01/06 07:30:53;;;;;;;1.50;1.40;;;4.00;99.90;;;4.19;85.55;100827.53;4982025;28;20221;-68
2022/01/06 07:33:20;;;;;;;2.08;1.13;;;4.00;99.90;;;4.19;85.45;100827.53;4975110;28;20879;-68
2022/01/06 07:35:47;;;;;;;2.15;1.40;;;4.00;99.90;;;4.21;85.64;100830.03;4968029;28;20230;-68
2022/01/06 07:38:13;;;;;;;1.83;1.35;;;4.00;99.90;;;4.25;84.76;100829.84;4969115;28;20614;-67
2022/01/06 07:40:41;;;;;;;0.95;0.90;;;4.10;99.90;;;4.23;84.52;100838.56;4982751;28;20298;-68
2022/01/06 07:43:08;;;;;;;1.67;1.00;;;4.00;99.90;;;4.25;84.53;100832.44;4976357;28;20294;-67
2022/01/06 07:45:35;;;;;;;2.63;1.15;;;4.10;99.90;;;4.27;84.76;100855.59;4971388;28;20556;-67
2022/01/06 07:48:04;;;;;;;0.95;0.93;;;4.10;99.90;;;4.30;84.52;100850.31;4969851;28;20208;-67
2022/01/06 07:50:34;;;;;;;0.80;0.80;;;4.10;99.90;;;4.33;83.83;100860.50;4970922;28;20215;-68
2022/01/06 07:53:02;;;;;;;1.02;1.02;;;4.20;99.90;;;4.31;83.95;100865.75;4953698;28;20231;-68
2022/01/06 07:55:29;;;;;;;1.63;0.90;;;4.20;99.90;;;4.37;83.76;100869.81;4955460;28;20214;-68
2022/01/06 07:57:56;;;;;;;4.43;1.10;;;4.20;99.90;;;4.43;83.61;100872.16;4970984;28;20251;-68
2022/01/06 08:00:23;;;;;;;2.67;1.10;;;4.30;99.90;;;4.57;83.01;100870.66;4972239;28;20231;-68
2022/01/06 08:02:50;;;;;;;3.22;1.50;;;4.50;99.90;;;4.73;82.66;100871.63;4969692;28;20212;-67
2022/01/06 08:05:20;;;;;;;1.90;1.40;;;4.70;99.90;;;4.88;81.82;100872.69;4957060;28;20204;-68
2022/01/06 08:07:47;;;;;;;2.88;1.15;;;4.80;99.90;;;5.02;80.63;100877.25;4975195;28;20323;-68
2022/01/06 08:10:14;;;;;;;1.10;1.00;;;5.00;99.90;;;5.07;80.46;100883.88;4975000;28;20216;-67
2022/01/06 08:12:41;;;;;;;1.33;1.05;;;5.00;99.90;;;5.16;79.61;100885.22;4974965;28;20212;-67
2022/01/06 08:15:09;;;;;;;5.90;1.20;;;5.10;99.90;;;5.19;79.14;100879.91;4970985;28;20295;-67
2022/01/06 08:17:37;;;;;;;1.10;1.00;;;5.20;99.90;;;5.27;79.00;100883.84;4983456;28;20219;-68
2022/01/06 08:20:07;;;;;;;0.90;0.90;;;5.20;99.90;;;5.54;77.41;100884.28;4982126;28;20645;-67
2022/01/06 08:22:35;;;;;;;0.80;0.80;;;5.60;99.90;;;6.00;76.22;100886.41;4986997;28;20641;-67
2022/01/06 08:25:07;;;;;;;3.43;1.50;;;6.00;99.90;;;6.74;73.98;100887.78;4957717;28;20654;-67
2022/01/06 08:27:34;;;;;;;1.37;1.20;;;6.80;99.90;;;7.68;70.15;100896.47;4973580;28;21077;-66
2022/01/06 08:30:04;;;;;;;3.03;1.10;;;7.90;99.90;;;9.00;65.59;100897.34;4974764;28;21218;-67
2022/01/06 08:32:31;;;;;;;2.40;1.10;;;9.40;99.90;;;10.33;61.45;100898.38;4975582;28;21192;-65
2022/01/06 08:34:57;;;;;;;1.73;1.23;;;10.80;99.90;;;11.66;56.92;100908.13;4975034;28;20619;-68
2022/01/06 08:37:24;;;;;;;1.63;1.10;;;12.20;99.90;;;12.69;52.27;100913.53;4973076;28;20657;-66
2022/01/06 08:39:51;;;;;;;1.93;1.40;;;13.20;96.30;;;14.04;48.79;100909.69;4974396;28;20674;-67
2022/01/06 08:42:18;;;;;;;3.20;1.93;;;14.60;92.60;;;15.03;45.85;100907.44;4974657;28;21237;-66
2022/01/06 08:44:45;;;;;;;1.70;1.37;;;15.80;86.10;;;15.90;43.57;100917.25;4973274;28;20631;-66
2022/01/06 08:47:12;;;;;;;2.40;1.90;;;16.60;78.70;;;16.67;42.07;100913.63;4973648;28;20781;-66
2022/01/06 08:49:41;;;;;;;7.00;1.73;;;17.30;73.70;;;17.12;40.26;100923.47;4973498;28;20642;-67
2022/01/06 08:52:09;;;;;;;3.90;1.70;;;17.80;69.40;;;17.35;39.04;100933.50;4972608;28;20630;-67
2022/01/06 08:54:36;;;;;;;3.43;1.47;;;17.90;66.50;;;17.82;38.36;100926.31;4973361;28;20671;-67
2022/01/06 08:57:03;;;;;;;1.90;1.80;;;18.40;64.50;;;17.72;38.40;100933.44;4974133;28;20635;-67
2022/01/06 08:59:30;;;;;;;3.23;2.20;;;18.20;64.00;;;18.75;36.93;100941.63;4973571;28;20673;-67
2022/01/06 09:01:57;;;;;;;2.77;1.60;;;19.60;61.60;;;19.38;34.50;100940.34;4974540;28;20631;-67
2022/01/06 09:04:24;;;;;;;4.63;2.33;;;20.50;57.20;;;19.54;34.86;100943.06;4974631;28;20689;-67
2022/01/06 09:06:52;;;;;;;2.20;1.80;;;20.80;56.30;;;19.46;35.79;100943.06;4980484;28;20662;-67
2022/01/06 09:09:20;;;;;;;2.63;1.60;;;20.70;56.00;;;19.49;35.56;100942.72;4974537;28;20619;-67
2022/01/06 09:11:47;;;;;;;2.70;1.73;;;21.00;55.10;;;19.85;34.18;100938.00;4974295;28;20639;-67
2022/01/06 09:14:14;;;;;;;5.63;1.70;;;21.50;52.80;;;18.76;35.23;100943.31;4974688;28;20611;-67
2022/01/06 09:16:41;;;;;;;1.40;1.30;;;20.20;53.90;;;17.10;38.10;100938.59;4972080;28;20669;-67
2022/01/06 09:19:08;;;;;;;1.60;1.43;;;18.10;57.40;;;15.45;40.80;100945.81;4973851;28;20702;-67
2022/01/06 09:21:36;;;;;;;2.50;1.63;;;16.10;61.80;;;14.14;44.10;100943.88;4957244;28;20611;-67
2022/01/06 09:24:07;;;;;;;1.90;1.30;;;14.50;66.40;;;12.73;47.73;100949.00;4975426;28;20646;-67
2022/01/06 09:26:34;;;;;;;2.93;1.47;;;12.70;75.10;;;11.79;49.68;100957.78;4974460;28;20658;-67
2022/01/06 09:29:07;;;;;;;1.90;1.23;;;11.60;84.60;;;11.09;51.37;100951.41;4973367;28;20686;-66
2022/01/06 09:31:36;;;;;;;6.60;1.57;;;11.00;91.10;;;10.65;53.52;100957.88;4974626;28;20714;-67
2022/01/06 09:34:08;;;;;;;3.43;1.47;;;10.60;94.10;;;10.27;55.13;100959.56;4974017;28;20718;-67
2022/01/06 09:36:39;;;;;;;4.83;1.57;;;10.30;96.60;;;9.82;56.83;100955.50;4955572;28;20661;-66
2022/01/06 09:39:09;;;;;;;2.03;1.20;;;9.90;98.80;;;9.51;57.51;100957.53;4973250;28;20665;-67
2022/01/06 09:41:37;;;;;;;2.30;1.40;;;9.50;99.90;;;9.26;58.38;100966.03;4981469;28;20635;-67
2022/01/06 09:44:06;;;;;;;2.37;1.37;;;9.30;99.90;;;9.14;58.97;100978.03;4978555;28;20603;-67
2022/01/06 09:46:55;;;;;;;1.50;1.30;;;9.20;99.90;;;9.24;59.50;100983.53;4974609;28;20662;-68
2022/01/06 09:49:23;;;;;;;1.63;1.53;;;9.40;99.90;;;9.34;59.06;100977.66;4974091;28;20643;-68
2022/01/06 09:51:51;;;;;;;4.40;1.87;;;9.60;99.90;;;9.47;58.72;100985.56;4984503;28;20610;-67
2022/01/06 09:54:19;;;;;;;1.00;1.00;;;9.70;99.90;;;9.38;58.77;100992.19;4985528;28;21249;-68
2022/01/06 09:56:46;;;;;;;3.30;1.50;;;9.60;99.90;;;9.18;59.64;101004.69;4984757;28;20736;-66
2022/01/06 09:59:13;;;;;;;3.03;1.70;;;9.30;99.90;;;8.99;60.32;101006.72;4989639;28;21055;-66
2022/01/06 10:01:41;;;;;;;3.70;0.83;;;9.10;99.90;;;8.75;60.97;101003.84;4972397;28;20738;-66
2022/01/06 10:04:30;;;;;;;0.70;0.70;;;8.80;99.90;;;8.50;61.42;101012.22;4971962;28;20611;-66
2022/01/06 10:07:06;;;;;;;1.50;1.30;;;8.60;99.90;;;8.24;62.63;101012.00;4973259;28;21083;-66
2022/01/06 10:09:36;;;;;;;1.27;1.27;;;8.30;99.90;;;8.12;63.53;101004.84;4971772;28;20646;-66
2022/01/06 10:12:13;;;;;;;2.93;1.27;;;8.10;99.90;;;8.09;64.03;101012.84;4970569;28;20658;-66
2022/01/06 10:14:49;;;;;;;1.30;1.20;;;8.10;99.90;;;8.02;64.16;101014.09;4980434;28;20623;-67
2022/01/06 10:17:32;;;;;;;1.33;1.00;;;8.10;99.90;;;8.00;64.13;101000.34;4971757;28;20659;-66
2022/01/06 10:20:15;;;;;;;2.37;1.43;;;8.00;99.90;;;8.11;64.59;101005.78;4973385;28;20667;-66
2022/01/06 10:22:48;;;;;;;1.10;1.10;;;8.10;99.90;;;8.38;64.48;100999.91;4973215;28;20614;-67
2022/01/06 10:25:17;;;;;;;2.70;1.50;;;8.50;99.90;;;8.68;63.83;101009.47;4972773;28;20635;-69
2022/01/06 10:27:46;;;;;;;2.17;1.03;;;8.70;99.90;;;8.98;61.97;101003.31;4971879;28;20646;-67
2022/01/06 10:30:14;;;;;;;2.43;1.33;;;9.20;99.90;;;9.21;60.78;101000.16;4956884;28;20622;-68
2022/01/06 10:32:43;;;;;;;0.73;0.73;;;9.50;99.90;;;9.39;60.18;100999.03;4972804;28;20977;-66
2022/01/06 10:35:15;;;;;;;2.90;1.20;;;9.70;99.90;;;9.49;59.41;100993.28;4980660;28;20630;-67
2022/01/06 10:37:46;;;;;;;3.17;1.20;;;9.70;99.90;;;9.45;59.78;100991.78;4987181;28;21217;-67